sensor_id;sensor_type;location;lat;lon;timestamp;P1;durP1;ratioP1;P2;durP2;ratioP2
15402;SDS011;7799;53.478;10.170;2023-08-12T00:02:32;1.80;;;1.70;;
15402;SDS011;7799;53.478;10.170;2023-08-12T00:04:59;1.87;;;1.77;;
15402;SDS011;7799;53.478;10.170;2023-08-12T00:07:25;1.77;;;1.67;;
15402;SDS011;7799;53.478;10.170;2023-08-12T00:09:52;1.63;;;1.53;;
15402;SDS011;7799;53.478;10.170;2023-08-12T00:12:21;1.60;;;1.50;;
15402;SDS011;7799;53.478;10.170;2023-08-12T00:14:47;1.93;;;1.60;;
15402;SDS011;7799;53.478;10.170;2023-08-12T00:17:15;1.53;;;1.43;;
15402;SDS011;7799;53.478;10.170;2023-08-12T00:19:42;1.50;;;1.40;;
15402;SDS011;7799;53.478;10.170;2023-08-12T00:22:09;1.80;;;1.43;;
15402;SDS011;7799;53.478;10.170;2023-08-12T00:24:35;1.70;;;1.60;;
15402;SDS011;7799;53.478;10.170;2023-08-12T00:27:02;1.60;;;1.50;;
15402;SDS011;7799;53.478;10.170;2023-08-12T00:29:29;1.67;;;1.50;;
15402;SDS011;7799;53.478;10.170;2023-08-12T00:31:56;1.50;;;1.40;;
15402;SDS011;7799;53.478;10.170;2023-08-12T00:34:24;1.30;;;1.20;;
15402;SDS011;7799;53.478;10.170;2023-08-12T00:36:50;1.57;;;1.40;;
15402;SDS011;7799;53.478;10.170;2023-08-12T00:39:17;1.20;;;1.10;;
15402;SDS011;7799;53.478;10.170;2023-08-12T00:41:43;1.00;;;1.00;;
15402;SDS011;7799;53.478;10.170;2023-08-12T00:44:10;1.30;;;1.30;;
15402;SDS011;7799;53.478;10.170;2023-08-12T00:46:37;4.00;;;1.73;;
15402;SDS011;7799;53.478;10.170;2023-08-12T00:49:04;1.90;;;1.73;;
15402;SDS011;7799;53.478;10.170;2023-08-12T00:51:33;1.70;;;1.60;;
15402;SDS011;7799;53.478;10.170;2023-08-12T00:54:01;1.50;;;1.40;;
15402;SDS011;7799;53.478;10.170;2023-08-12T00:56:29;1.77;;;1.67;;
15402;SDS011;7799;53.478;10.170;2023-08-12T00:58:57;1.67;;;1.57;;
15402;SDS011;7799;53.478;10.170;2023-08-12T01:01:25;1.60;;;1.50;;
15402;SDS011;7799;53.478;10.170;2023-08-12T01:03:53;1.40;;;1.30;;
15402;SDS011;7799;53.478;10.170;2023-08-12T01:06:20;1.60;;;1.50;;
15402;SDS011;7799;53.478;10.170;2023-08-12T01:08:48;1.57;;;1.43;;
15402;SDS011;7799;53.478;10.170;2023-08-12T01:11:16;1.87;;;1.47;;
15402;SDS011;7799;53.478;10.170;2023-08-12T01:13:49;1.40;;;1.30;;
15402;SDS011;7799;53.478;10.170;2023-08-12T01:16:22;1.80;;;1.70;;
15402;SDS011;7799;53.478;10.170;2023-08-12T01:18:49;1.50;;;1.40;;
15402;SDS011;7799;53.478;10.170;2023-08-12T01:21:16;1.50;;;1.40;;
15402;SDS011;7799;53.478;10.170;2023-08-12T01:23:45;1.53;;;1.43;;
15402;SDS011;7799;53.478;10.170;2023-08-12T01:26:12;1.60;;;1.50;;
15402;SDS011;7799;53.478;10.170;2023-08-12T01:28:38;1.70;;;1.60;;
15402;SDS011;7799;53.478;10.170;2023-08-12T01:31:08;1.87;;;1.70;;
15402;SDS011;7799;53.478;10.170;2023-08-12T01:33:39;1.47;;;1.37;;
15402;SDS011;7799;53.478;10.170;2023-08-12T01:36:11;1.50;;;1.40;;
15402;SDS011;7799;53.478;10.170;2023-08-12T01:38:39;1.73;;;1.63;;
15402;SDS011;7799;53.478;10.170;2023-08-12T01:41:08;2.60;;;1.40;;
15402;SDS011;7799;53.478;10.170;2023-08-12T01:43:36;1.43;;;1.30;;
15402;SDS011;7799;53.478;10.170;2023-08-12T01:46:03;1.63;;;1.47;;
15402;SDS011;7799;53.478;10.170;2023-08-12T01:48:30;1.50;;;1.40;;
15402;SDS011;7799;53.478;10.170;2023-08-12T01:50:56;3.27;;;1.30;;
15402;SDS011;7799;53.478;10.170;2023-08-12T01:53:23;1.63;;;1.53;;
15402;SDS011;7799;53.478;10.170;2023-08-12T01:55:50;1.70;;;1.60;;
15402;SDS011;7799;53.478;10.170;2023-08-12T01:58:19;2.33;;;1.70;;
15402;SDS011;7799;53.478;10.170;2023-08-12T02:00:46;1.70;;;1.60;;
15402;SDS011;7799;53.478;10.170;2023-08-12T02:03:12;1.50;;;1.40;;
15402;SDS011;7799;53.478;10.170;2023-08-12T02:05:39;1.60;;;1.50;;
15402;SDS011;7799;53.478;10.170;2023-08-12T02:08:06;2.00;;;1.87;;
15402;SDS011;7799;53.478;10.170;2023-08-12T02:10:34;1.77;;;1.37;;
15402;SDS011;7799;53.478;10.170;2023-08-12T02:13:01;1.80;;;1.30;;
15402;SDS011;7799;53.478;10.170;2023-08-12T02:15:29;1.33;;;1.23;;
15402;SDS011;7799;53.478;10.170;2023-08-12T02:17:56;1.57;;;1.47;;
15402;SDS011;7799;53.478;10.170;2023-08-12T02:20:24;1.67;;;1.43;;
15402;SDS011;7799;53.478;10.170;2023-08-12T02:22:50;1.23;;;1.13;;
15402;SDS011;7799;53.478;10.170;2023-08-12T02:25:17;1.20;;;1.20;;
15402;SDS011;7799;53.478;10.170;2023-08-12T02:27:44;1.30;;;1.20;;
15402;SDS011;7799;53.478;10.170;2023-08-12T02:30:11;1.43;;;1.30;;
15402;SDS011;7799;53.478;10.170;2023-08-12T02:32:39;2.60;;;1.50;;
15402;SDS011;7799;53.478;10.170;2023-08-12T02:35:08;1.73;;;1.23;;
15402;SDS011;7799;53.478;10.170;2023-08-12T02:37:35;1.13;;;1.13;;
15402;SDS011;7799;53.478;10.170;2023-08-12T02:40:02;1.30;;;1.20;;
15402;SDS011;7799;53.478;10.170;2023-08-12T02:42:34;1.17;;;1.17;;
15402;SDS011;7799;53.478;10.170;2023-08-12T02:45:01;1.17;;;1.07;;
15402;SDS011;7799;53.478;10.170;2023-08-12T02:47:28;1.07;;;1.07;;
15402;SDS011;7799;53.478;10.170;2023-08-12T02:49:56;1.03;;;1.00;;
15402;SDS011;7799;53.478;10.170;2023-08-12T02:52:22;1.07;;;1.00;;
15402;SDS011;7799;53.478;10.170;2023-08-12T02:54:49;0.80;;;0.80;;
15402;SDS011;7799;53.478;10.170;2023-08-12T02:57:16;1.13;;;1.03;;
15402;SDS011;7799;53.478;10.170;2023-08-12T02:59:42;0.77;;;0.77;;
15402;SDS011;7799;53.478;10.170;2023-08-12T03:02:09;0.73;;;0.73;;
15402;SDS011;7799;53.478;10.170;2023-08-12T03:04:36;0.60;;;0.60;;
15402;SDS011;7799;53.478;10.170;2023-08-12T03:07:04;0.60;;;0.60;;
15402;SDS011;7799;53.478;10.170;2023-08-12T03:09:31;0.60;;;0.50;;
15402;SDS011;7799;53.478;10.170;2023-08-12T03:11:57;0.60;;;0.60;;
15402;SDS011;7799;53.478;10.170;2023-08-12T03:14:28;0.70;;;0.70;;
15402;SDS011;7799;53.478;10.170;2023-08-12T03:16:57;0.50;;;0.50;;
15402;SDS011;7799;53.478;10.170;2023-08-12T03:19:25;0.50;;;0.50;;
15402;SDS011;7799;53.478;10.170;2023-08-12T03:21:52;0.60;;;0.60;;
15402;SDS011;7799;53.478;10.170;2023-08-12T03:24:22;0.50;;;0.50;;
15402;SDS011;7799;53.478;10.170;2023-08-12T03:26:49;0.70;;;0.70;;
15402;SDS011;7799;53.478;10.170;2023-08-12T03:29:16;0.90;;;0.90;;
15402;SDS011;7799;53.478;10.170;2023-08-12T03:31:42;0.70;;;0.70;;
15402;SDS011;7799;53.478;10.170;2023-08-12T03:34:10;0.70;;;0.70;;
15402;SDS011;7799;53.478;10.170;2023-08-12T03:36:37;0.60;;;0.60;;
15402;SDS011;7799;53.478;10.170;2023-08-12T03:39:05;0.53;;;0.53;;
15402;SDS011;7799;53.478;10.170;2023-08-12T03:41:33;0.73;;;0.70;;
15402;SDS011;7799;53.478;10.170;2023-08-12T03:44:04;0.80;;;0.77;;
15402;SDS011;7799;53.478;10.170;2023-08-12T03:46:31;0.70;;;0.70;;
15402;SDS011;7799;53.478;10.170;2023-08-12T03:48:58;0.90;;;0.90;;
15402;SDS011;7799;53.478;10.170;2023-08-12T03:51:25;0.70;;;0.70;;
15402;SDS011;7799;53.478;10.170;2023-08-12T03:53:52;0.60;;;0.60;;
15402;SDS011;7799;53.478;10.170;2023-08-12T03:56:19;0.80;;;0.80;;
15402;SDS011;7799;53.478;10.170;2023-08-12T03:58:47;0.80;;;0.80;;
15402;SDS011;7799;53.478;10.170;2023-08-12T04:01:14;0.90;;;0.90;;
15402;SDS011;7799;53.478;10.170;2023-08-12T04:03:40;1.20;;;1.10;;
15402;SDS011;7799;53.478;10.170;2023-08-12T04:06:07;0.80;;;0.80;;
15402;SDS011;7799;53.478;10.170;2023-08-12T04:08:34;0.80;;;0.80;;
15402;SDS011;7799;53.478;10.170;2023-08-12T04:11:00;0.70;;;0.70;;
15402;SDS011;7799;53.478;10.170;2023-08-12T04:13:27;0.60;;;0.60;;
15402;SDS011;7799;53.478;10.170;2023-08-12T04:15:55;0.60;;;0.60;;
15402;SDS011;7799;53.478;10.170;2023-08-12T04:18:24;0.83;;;0.83;;
15402;SDS011;7799;53.478;10.170;2023-08-12T04:20:51;0.70;;;0.60;;
15402;SDS011;7799;53.478;10.170;2023-08-12T04:23:18;0.60;;;0.60;;
15402;SDS011;7799;53.478;10.170;2023-08-12T04:25:46;0.70;;;0.70;;
15402;SDS011;7799;53.478;10.170;2023-08-12T04:28:13;0.80;;;0.80;;
15402;SDS011;7799;53.478;10.170;2023-08-12T04:30:41;0.80;;;0.80;;
15402;SDS011;7799;53.478;10.170;2023-08-12T04:33:09;0.83;;;0.83;;
15402;SDS011;7799;53.478;10.170;2023-08-12T04:35:36;0.60;;;0.60;;
15402;SDS011;7799;53.478;10.170;2023-08-12T04:38:03;1.03;;;0.80;;
15402;SDS011;7799;53.478;10.170;2023-08-12T04:40:30;0.83;;;0.80;;
15402;SDS011;7799;53.478;10.170;2023-08-12T04:42:58;1.30;;;1.20;;
15402;SDS011;7799;53.478;10.170;2023-08-12T04:45:25;1.00;;;1.00;;
15402;SDS011;7799;53.478;10.170;2023-08-12T04:47:52;1.13;;;1.10;;
15402;SDS011;7799;53.478;10.170;2023-08-12T04:50:20;1.10;;;1.10;;
15402;SDS011;7799;53.478;10.170;2023-08-12T04:52:47;1.60;;;1.50;;
15402;SDS011;7799;53.478;10.170;2023-08-12T04:55:14;1.30;;;1.20;;
15402;SDS011;7799;53.478;10.170;2023-08-12T04:57:43;1.00;;;1.00;;
15402;SDS011;7799;53.478;10.170;2023-08-12T05:00:09;0.70;;;0.70;;
15402;SDS011;7799;53.478;10.170;2023-08-12T05:02:37;0.90;;;0.90;;
15402;SDS011;7799;53.478;10.170;2023-08-12T05:05:04;1.00;;;1.00;;
15402;SDS011;7799;53.478;10.170;2023-08-12T05:07:34;1.10;;;1.00;;
15402;SDS011;7799;53.478;10.170;2023-08-12T05:10:02;0.80;;;0.80;;
15402;SDS011;7799;53.478;10.170;2023-08-12T05:12:30;0.70;;;0.70;;
15402;SDS011;7799;53.478;10.170;2023-08-12T05:14:57;0.93;;;0.93;;
15402;SDS011;7799;53.478;10.170;2023-08-12T05:17:24;1.00;;;1.00;;
15402;SDS011;7799;53.478;10.170;2023-08-12T05:19:51;1.40;;;1.30;;
15402;SDS011;7799;53.478;10.170;2023-08-12T05:22:18;1.30;;;1.20;;
15402;SDS011;7799;53.478;10.170;2023-08-12T05:24:46;1.03;;;0.93;;
15402;SDS011;7799;53.478;10.170;2023-08-12T05:27:12;1.23;;;1.00;;
15402;SDS011;7799;53.478;10.170;2023-08-12T05:29:39;1.00;;;0.97;;
15402;SDS011;7799;53.478;10.170;2023-08-12T05:32:06;1.13;;;0.90;;
15402;SDS011;7799;53.478;10.170;2023-08-12T05:34:33;0.80;;;0.80;;
15402;SDS011;7799;53.478;10.170;2023-08-12T05:36:59;0.73;;;0.73;;
15402;SDS011;7799;53.478;10.170;2023-08-12T05:39:26;1.00;;;0.90;;
15402;SDS011;7799;53.478;10.170;2023-08-12T05:41:54;0.90;;;0.90;;
15402;SDS011;7799;53.478;10.170;2023-08-12T05:44:21;1.67;;;0.90;;
15402;SDS011;7799;53.478;10.170;2023-08-12T05:46:48;0.87;;;0.80;;
15402;SDS011;7799;53.478;10.170;2023-08-12T05:49:14;1.07;;;1.00;;
15402;SDS011;7799;53.478;10.170;2023-08-12T05:51:41;1.10;;;0.83;;
15402;SDS011;7799;53.478;10.170;2023-08-12T05:54:08;0.80;;;0.80;;
15402;SDS011;7799;53.478;10.170;2023-08-12T05:56:34;0.90;;;0.90;;
15402;SDS011;7799;53.478;10.170;2023-08-12T05:59:02;0.80;;;0.80;;
15402;SDS011;7799;53.478;10.170;2023-08-12T06:01:29;0.67;;;0.67;;
15402;SDS011;7799;53.478;10.170;2023-08-12T06:03:56;0.80;;;0.73;;
15402;SDS011;7799;53.478;10.170;2023-08-12T06:06:23;0.80;;;0.80;;
15402;SDS011;7799;53.478;10.170;2023-08-12T06:08:49;0.80;;;0.80;;
15402;SDS011;7799;53.478;10.170;2023-08-12T06:11:16;0.70;;;0.70;;
15402;SDS011;7799;53.478;10.170;2023-08-12T06:13:43;0.80;;;0.80;;
15402;SDS011;7799;53.478;10.170;2023-08-12T06:16:11;0.80;;;0.80;;
15402;SDS011;7799;53.478;10.170;2023-08-12T06:18:37;0.70;;;0.70;;
15402;SDS011;7799;53.478;10.170;2023-08-12T06:21:04;0.70;;;0.70;;
15402;SDS011;7799;53.478;10.170;2023-08-12T06:23:31;1.10;;;1.00;;
15402;SDS011;7799;53.478;10.170;2023-08-12T06:25:58;0.90;;;0.73;;
15402;SDS011;7799;53.478;10.170;2023-08-12T06:28:24;0.90;;;0.90;;
15402;SDS011;7799;53.478;10.170;2023-08-12T06:30:51;0.80;;;0.80;;
15402;SDS011;7799;53.478;10.170;2023-08-12T06:33:19;0.80;;;0.80;;
15402;SDS011;7799;53.478;10.170;2023-08-12T06:35:46;0.90;;;0.90;;
15402;SDS011;7799;53.478;10.170;2023-08-12T06:38:12;0.80;;;0.80;;
15402;SDS011;7799;53.478;10.170;2023-08-12T06:40:39;0.90;;;0.90;;
15402;SDS011;7799;53.478;10.170;2023-08-12T06:43:06;0.70;;;0.70;;
15402;SDS011;7799;53.478;10.170;2023-08-12T06:45:34;0.90;;;0.90;;
15402;SDS011;7799;53.478;10.170;2023-08-12T06:48:00;0.90;;;0.90;;
15402;SDS011;7799;53.478;10.170;2023-08-12T06:50:29;1.03;;;1.00;;
15402;SDS011;7799;53.478;10.170;2023-08-12T06:52:58;0.93;;;0.93;;
15402;SDS011;7799;53.478;10.170;2023-08-12T06:55:25;0.80;;;0.80;;
15402;SDS011;7799;53.478;10.170;2023-08-12T06:57:51;0.80;;;0.80;;
15402;SDS011;7799;53.478;10.170;2023-08-12T07:00:18;1.10;;;1.00;;
15402;SDS011;7799;53.478;10.170;2023-08-12T07:02:45;1.37;;;1.27;;
15402;SDS011;7799;53.478;10.170;2023-08-12T07:05:11;1.17;;;1.10;;
15402;SDS011;7799;53.478;10.170;2023-08-12T07:07:39;1.10;;;1.10;;
15402;SDS011;7799;53.478;10.170;2023-08-12T07:10:06;0.90;;;0.80;;
15402;SDS011;7799;53.478;10.170;2023-08-12T07:12:33;1.50;;;1.40;;
15402;SDS011;7799;53.478;10.170;2023-08-12T07:15:00;1.10;;;1.10;;
15402;SDS011;7799;53.478;10.170;2023-08-12T07:17:27;1.13;;;1.13;;
15402;SDS011;7799;53.478;10.170;2023-08-12T07:19:53;0.87;;;0.87;;
15402;SDS011;7799;53.478;10.170;2023-08-12T07:22:20;1.17;;;1.10;;
15402;SDS011;7799;53.478;10.170;2023-08-12T07:24:48;1.10;;;1.00;;
15402;SDS011;7799;53.478;10.170;2023-08-12T07:27:17;1.13;;;1.13;;
15402;SDS011;7799;53.478;10.170;2023-08-12T07:29:45;1.47;;;1.37;;
15402;SDS011;7799;53.478;10.170;2023-08-12T07:32:11;1.50;;;1.40;;
15402;SDS011;7799;53.478;10.170;2023-08-12T07:34:38;1.40;;;1.30;;
15402;SDS011;7799;53.478;10.170;2023-08-12T07:37:05;1.77;;;1.67;;
15402;SDS011;7799;53.478;10.170;2023-08-12T07:39:31;1.23;;;1.17;;
15402;SDS011;7799;53.478;10.170;2023-08-12T07:41:59;1.50;;;1.10;;
15402;SDS011;7799;53.478;10.170;2023-08-12T07:44:26;2.40;;;2.07;;
15402;SDS011;7799;53.478;10.170;2023-08-12T07:46:53;2.90;;;2.10;;
15402;SDS011;7799;53.478;10.170;2023-08-12T07:49:21;1.97;;;1.87;;
15402;SDS011;7799;53.478;10.170;2023-08-12T07:51:47;1.70;;;1.60;;
15402;SDS011;7799;53.478;10.170;2023-08-12T07:54:14;2.63;;;2.30;;
15402;SDS011;7799;53.478;10.170;2023-08-12T07:56:41;2.70;;;2.50;;
15402;SDS011;7799;53.478;10.170;2023-08-12T07:59:09;2.80;;;2.60;;
15402;SDS011;7799;53.478;10.170;2023-08-12T08:01:35;2.17;;;1.97;;
15402;SDS011;7799;53.478;10.170;2023-08-12T08:04:02;2.10;;;2.00;;
15402;SDS011;7799;53.478;10.170;2023-08-12T08:06:29;2.20;;;2.10;;
15402;SDS011;7799;53.478;10.170;2023-08-12T08:08:56;2.00;;;1.90;;
15402;SDS011;7799;53.478;10.170;2023-08-12T08:11:24;1.50;;;1.40;;
15402;SDS011;7799;53.478;10.170;2023-08-12T08:13:50;1.50;;;1.40;;
15402;SDS011;7799;53.478;10.170;2023-08-12T08:16:18;1.70;;;1.60;;
15402;SDS011;7799;53.478;10.170;2023-08-12T08:18:45;2.40;;;2.20;;
15402;SDS011;7799;53.478;10.170;2023-08-12T08:21:12;2.30;;;2.13;;
15402;SDS011;7799;53.478;10.170;2023-08-12T08:23:39;1.80;;;1.70;;
15402;SDS011;7799;53.478;10.170;2023-08-12T08:26:07;2.10;;;2.00;;
15402;SDS011;7799;53.478;10.170;2023-08-12T08:28:34;1.80;;;1.70;;
15402;SDS011;7799;53.478;10.170;2023-08-12T08:31:00;2.10;;;1.90;;
15402;SDS011;7799;53.478;10.170;2023-08-12T08:33:29;1.70;;;1.60;;
15402;SDS011;7799;53.478;10.170;2023-08-12T08:35:55;1.83;;;1.73;;
15402;SDS011;7799;53.478;10.170;2023-08-12T08:38:22;1.73;;;1.63;;
15402;SDS011;7799;53.478;10.170;2023-08-12T08:40:49;2.13;;;2.03;;
15402;SDS011;7799;53.478;10.170;2023-08-12T08:43:18;1.80;;;1.70;;
15402;SDS011;7799;53.478;10.170;2023-08-12T08:45:47;1.60;;;1.50;;
15402;SDS011;7799;53.478;10.170;2023-08-12T08:48:15;2.00;;;1.53;;
15402;SDS011;7799;53.478;10.170;2023-08-12T08:50:43;2.53;;;2.33;;
15402;SDS011;7799;53.478;10.170;2023-08-12T08:53:12;2.10;;;2.00;;
15402;SDS011;7799;53.478;10.170;2023-08-12T08:55:39;2.20;;;2.10;;
15402;SDS011;7799;53.478;10.170;2023-08-12T08:58:06;3.10;;;2.57;;
15402;SDS011;7799;53.478;10.170;2023-08-12T09:00:33;2.93;;;2.73;;
15402;SDS011;7799;53.478;10.170;2023-08-12T09:03:00;2.23;;;2.13;;
15402;SDS011;7799;53.478;10.170;2023-08-12T09:05:27;1.87;;;1.70;;
15402;SDS011;7799;53.478;10.170;2023-08-12T09:07:56;2.40;;;2.30;;
15402;SDS011;7799;53.478;10.170;2023-08-12T09:10:24;2.23;;;2.13;;
15402;SDS011;7799;53.478;10.170;2023-08-12T09:12:53;2.10;;;2.00;;
15402;SDS011;7799;53.478;10.170;2023-08-12T09:15:21;1.90;;;1.80;;
15402;SDS011;7799;53.478;10.170;2023-08-12T09:17:49;1.83;;;1.73;;
15402;SDS011;7799;53.478;10.170;2023-08-12T09:20:15;2.07;;;1.90;;
15402;SDS011;7799;53.478;10.170;2023-08-12T09:22:42;1.80;;;1.70;;
15402;SDS011;7799;53.478;10.170;2023-08-12T09:25:10;2.03;;;1.93;;
15402;SDS011;7799;53.478;10.170;2023-08-12T09:27:38;1.90;;;1.80;;
15402;SDS011;7799;53.478;10.170;2023-08-12T09:30:05;1.90;;;1.80;;
15402;SDS011;7799;53.478;10.170;2023-08-12T09:32:32;1.63;;;1.53;;
15402;SDS011;7799;53.478;10.170;2023-08-12T09:34:59;2.10;;;2.00;;
15402;SDS011;7799;53.478;10.170;2023-08-12T09:37:28;2.17;;;1.70;;
15402;SDS011;7799;53.478;10.170;2023-08-12T09:39:54;2.30;;;2.20;;
15402;SDS011;7799;53.478;10.170;2023-08-12T09:42:24;2.30;;;2.20;;
15402;SDS011;7799;53.478;10.170;2023-08-12T09:44:51;2.13;;;2.03;;
15402;SDS011;7799;53.478;10.170;2023-08-12T09:47:17;3.23;;;2.93;;
15402;SDS011;7799;53.478;10.170;2023-08-12T09:49:44;3.23;;;3.03;;
15402;SDS011;7799;53.478;10.170;2023-08-12T09:52:11;2.60;;;2.40;;
15402;SDS011;7799;53.478;10.170;2023-08-12T09:54:38;1.80;;;1.70;;
15402;SDS011;7799;53.478;10.170;2023-08-12T09:57:05;2.00;;;1.90;;
15402;SDS011;7799;53.478;10.170;2023-08-12T09:59:35;2.00;;;1.90;;
15402;SDS011;7799;53.478;10.170;2023-08-12T10:02:05;1.73;;;1.63;;
15402;SDS011;7799;53.478;10.170;2023-08-12T10:04:35;1.97;;;1.87;;
15402;SDS011;7799;53.478;10.170;2023-08-12T10:07:05;1.80;;;1.70;;
15402;SDS011;7799;53.478;10.170;2023-08-12T10:09:31;1.83;;;1.73;;
15402;SDS011;7799;53.478;10.170;2023-08-12T10:11:59;1.80;;;1.70;;
15402;SDS011;7799;53.478;10.170;2023-08-12T10:14:26;2.20;;;2.00;;
15402;SDS011;7799;53.478;10.170;2023-08-12T10:16:54;2.10;;;2.00;;
15402;SDS011;7799;53.478;10.170;2023-08-12T10:19:21;1.90;;;1.80;;
15402;SDS011;7799;53.478;10.170;2023-08-12T10:21:50;2.10;;;2.00;;
15402;SDS011;7799;53.478;10.170;2023-08-12T10:24:23;2.40;;;2.20;;
15402;SDS011;7799;53.478;10.170;2023-08-12T10:26:49;2.70;;;2.50;;
15402;SDS011;7799;53.478;10.170;2023-08-12T10:29:17;2.00;;;1.90;;
15402;SDS011;7799;53.478;10.170;2023-08-12T10:31:44;2.10;;;2.00;;
15402;SDS011;7799;53.478;10.170;2023-08-12T10:34:18;2.50;;;2.30;;
15402;SDS011;7799;53.478;10.170;2023-08-12T10:36:46;1.97;;;1.87;;
15402;SDS011;7799;53.478;10.170;2023-08-12T10:39:13;2.30;;;2.10;;
15402;SDS011;7799;53.478;10.170;2023-08-12T10:41:43;2.13;;;2.03;;
15402;SDS011;7799;53.478;10.170;2023-08-12T10:44:16;2.30;;;2.10;;
15402;SDS011;7799;53.478;10.170;2023-08-12T10:46:45;2.27;;;2.17;;
15402;SDS011;7799;53.478;10.170;2023-08-12T10:49:18;1.77;;;1.67;;
15402;SDS011;7799;53.478;10.170;2023-08-12T10:51:47;2.13;;;2.03;;
15402;SDS011;7799;53.478;10.170;2023-08-12T10:54:15;1.97;;;1.87;;
15402;SDS011;7799;53.478;10.170;2023-08-12T10:59:52;2.00;;;1.90;;
15402;SDS011;7799;53.478;10.170;2023-08-12T11:02:20;2.70;;;2.50;;
15402;SDS011;7799;53.478;10.170;2023-08-12T11:04:51;2.33;;;2.23;;
15402;SDS011;7799;53.478;10.170;2023-08-12T11:07:19;2.20;;;2.10;;
15402;SDS011;7799;53.478;10.170;2023-08-12T11:09:48;2.50;;;2.30;;
15402;SDS011;7799;53.478;10.170;2023-08-12T11:12:18;2.78;;;2.50;;
15402;SDS011;7799;53.478;10.170;2023-08-12T11:14:48;2.40;;;2.20;;
15402;SDS011;7799;53.478;10.170;2023-08-12T11:17:15;2.13;;;2.03;;
15402;SDS011;7799;53.478;10.170;2023-08-12T11:19:41;1.92;;;1.83;;
15402;SDS011;7799;53.478;10.170;2023-08-12T11:22:09;1.95;;;1.85;;
15402;SDS011;7799;53.478;10.170;2023-08-12T11:24:39;1.75;;;1.65;;
15402;SDS011;7799;53.478;10.170;2023-08-12T11:27:09;1.63;;;1.40;;
15402;SDS011;7799;53.478;10.170;2023-08-12T11:29:36;2.00;;;1.90;;
15402;SDS011;7799;53.478;10.170;2023-08-12T11:32:04;1.70;;;1.60;;
15402;SDS011;7799;53.478;10.170;2023-08-12T11:34:31;3.97;;;3.67;;
15402;SDS011;7799;53.478;10.170;2023-08-12T11:36:58;4.63;;;4.30;;
15402;SDS011;7799;53.478;10.170;2023-08-12T11:39:26;3.87;;;3.57;;
15402;SDS011;7799;53.478;10.170;2023-08-12T11:41:53;2.93;;;2.73;;
15402;SDS011;7799;53.478;10.170;2023-08-12T11:44:21;2.53;;;2.33;;
15402;SDS011;7799;53.478;10.170;2023-08-12T11:46:48;1.80;;;1.70;;
15402;SDS011;7799;53.478;10.170;2023-08-12T11:49:15;1.87;;;1.77;;
15402;SDS011;7799;53.478;10.170;2023-08-12T11:51:42;1.60;;;1.50;;
15402;SDS011;7799;53.478;10.170;2023-08-12T11:54:09;1.53;;;1.43;;
15402;SDS011;7799;53.478;10.170;2023-08-12T11:56:38;1.53;;;1.43;;
15402;SDS011;7799;53.478;10.170;2023-08-12T11:59:04;1.50;;;1.40;;
15402;SDS011;7799;53.478;10.170;2023-08-12T12:01:31;1.40;;;1.30;;
15402;SDS011;7799;53.478;10.170;2023-08-12T12:03:59;1.30;;;1.20;;
15402;SDS011;7799;53.478;10.170;2023-08-12T12:06:30;1.57;;;1.20;;
15402;SDS011;7799;53.478;10.170;2023-08-12T12:08:59;1.37;;;1.20;;
15402;SDS011;7799;53.478;10.170;2023-08-12T12:11:29;1.30;;;1.20;;
15402;SDS011;7799;53.478;10.170;2023-08-12T12:13:59;1.30;;;1.20;;
15402;SDS011;7799;53.478;10.170;2023-08-12T12:16:35;1.43;;;1.33;;
15402;SDS011;7799;53.478;10.170;2023-08-12T12:19:03;1.40;;;1.30;;
15402;SDS011;7799;53.478;10.170;2023-08-12T12:21:32;1.17;;;1.10;;
15402;SDS011;7799;53.478;10.170;2023-08-12T12:24:05;1.33;;;1.23;;
15402;SDS011;7799;53.478;10.170;2023-08-12T12:26:32;1.30;;;1.20;;
15402;SDS011;7799;53.478;10.170;2023-08-12T12:29:00;1.20;;;1.20;;
15402;SDS011;7799;53.478;10.170;2023-08-12T12:31:27;1.30;;;1.20;;
15402;SDS011;7799;53.478;10.170;2023-08-12T12:33:53;1.40;;;1.30;;
15402;SDS011;7799;53.478;10.170;2023-08-12T12:36:20;1.40;;;1.30;;
15402;SDS011;7799;53.478;10.170;2023-08-12T12:38:47;1.37;;;1.20;;
15402;SDS011;7799;53.478;10.170;2023-08-12T12:41:14;1.20;;;1.20;;
15402;SDS011;7799;53.478;10.170;2023-08-12T12:43:40;1.60;;;1.50;;
15402;SDS011;7799;53.478;10.170;2023-08-12T12:46:08;1.50;;;1.40;;
15402;SDS011;7799;53.478;10.170;2023-08-12T12:48:35;1.83;;;1.73;;
15402;SDS011;7799;53.478;10.170;2023-08-12T12:51:02;1.40;;;1.30;;
15402;SDS011;7799;53.478;10.170;2023-08-12T12:53:28;1.63;;;1.53;;
15402;SDS011;7799;53.478;10.170;2023-08-12T12:55:55;1.60;;;1.50;;
15402;SDS011;7799;53.478;10.170;2023-08-12T12:58:23;1.50;;;1.40;;
15402;SDS011;7799;53.478;10.170;2023-08-12T13:00:50;1.50;;;1.40;;
15402;SDS011;7799;53.478;10.170;2023-08-12T13:03:18;1.80;;;1.70;;
15402;SDS011;7799;53.478;10.170;2023-08-12T13:05:44;1.30;;;1.20;;
15402;SDS011;7799;53.478;10.170;2023-08-12T13:08:11;1.60;;;1.50;;
15402;SDS011;7799;53.478;10.170;2023-08-12T13:10:38;1.40;;;1.30;;
15402;SDS011;7799;53.478;10.170;2023-08-12T13:13:04;1.77;;;1.50;;
15402;SDS011;7799;53.478;10.170;2023-08-12T13:15:31;1.67;;;1.40;;
15402;SDS011;7799;53.478;10.170;2023-08-12T13:17:58;1.33;;;1.23;;
15402;SDS011;7799;53.478;10.170;2023-08-12T13:20:26;1.43;;;1.33;;
15402;SDS011;7799;53.478;10.170;2023-08-12T13:22:52;1.53;;;1.43;;
15402;SDS011;7799;53.478;10.170;2023-08-12T13:25:19;1.50;;;1.40;;
15402;SDS011;7799;53.478;10.170;2023-08-12T13:27:46;1.50;;;1.40;;
15402;SDS011;7799;53.478;10.170;2023-08-12T13:30:13;1.73;;;1.60;;
15402;SDS011;7799;53.478;10.170;2023-08-12T13:32:39;1.60;;;1.40;;
15402;SDS011;7799;53.478;10.170;2023-08-12T13:35:06;1.50;;;1.40;;
15402;SDS011;7799;53.478;10.170;2023-08-12T13:37:35;1.30;;;1.30;;
15402;SDS011;7799;53.478;10.170;2023-08-12T13:40:02;1.10;;;1.10;;
15402;SDS011;7799;53.478;10.170;2023-08-12T13:42:29;1.40;;;1.30;;
15402;SDS011;7799;53.478;10.170;2023-08-12T13:44:55;1.67;;;1.40;;
15402;SDS011;7799;53.478;10.170;2023-08-12T13:47:22;1.70;;;1.60;;
15402;SDS011;7799;53.478;10.170;2023-08-12T13:49:49;1.70;;;1.60;;
15402;SDS011;7799;53.478;10.170;2023-08-12T13:52:15;1.80;;;1.70;;
15402;SDS011;7799;53.478;10.170;2023-08-12T13:54:43;1.80;;;1.70;;
15402;SDS011;7799;53.478;10.170;2023-08-12T13:57:10;2.07;;;1.97;;
15402;SDS011;7799;53.478;10.170;2023-08-12T13:59:37;2.83;;;2.63;;
15402;SDS011;7799;53.478;10.170;2023-08-12T14:02:05;2.40;;;2.20;;
15402;SDS011;7799;53.478;10.170;2023-08-12T14:04:32;2.03;;;1.93;;
15402;SDS011;7799;53.478;10.170;2023-08-12T14:06:59;1.90;;;1.80;;
15402;SDS011;7799;53.478;10.170;2023-08-12T14:09:25;2.40;;;2.30;;
15402;SDS011;7799;53.478;10.170;2023-08-12T14:11:53;2.37;;;2.17;;
15402;SDS011;7799;53.478;10.170;2023-08-12T14:14:20;1.97;;;1.87;;
15402;SDS011;7799;53.478;10.170;2023-08-12T14:16:47;2.20;;;2.10;;
15402;SDS011;7799;53.478;10.170;2023-08-12T14:19:14;2.17;;;1.97;;
15402;SDS011;7799;53.478;10.170;2023-08-12T14:21:42;2.37;;;1.90;;
15402;SDS011;7799;53.478;10.170;2023-08-12T14:24:08;1.90;;;1.80;;
15402;SDS011;7799;53.478;10.170;2023-08-12T14:26:35;1.77;;;1.67;;
15402;SDS011;7799;53.478;10.170;2023-08-12T14:29:03;1.97;;;1.87;;
15402;SDS011;7799;53.478;10.170;2023-08-12T14:31:30;1.80;;;1.70;;
15402;SDS011;7799;53.478;10.170;2023-08-12T14:33:57;1.60;;;1.50;;
15402;SDS011;7799;53.478;10.170;2023-08-12T14:36:23;1.83;;;1.73;;
15402;SDS011;7799;53.478;10.170;2023-08-12T14:38:50;1.83;;;1.73;;
15402;SDS011;7799;53.478;10.170;2023-08-12T14:41:17;2.10;;;1.90;;
15402;SDS011;7799;53.478;10.170;2023-08-12T14:43:44;1.80;;;1.70;;
15402;SDS011;7799;53.478;10.170;2023-08-12T14:46:12;2.17;;;2.07;;
15402;SDS011;7799;53.478;10.170;2023-08-12T14:48:38;2.10;;;2.00;;
15402;SDS011;7799;53.478;10.170;2023-08-12T14:51:05;1.80;;;1.70;;
15402;SDS011;7799;53.478;10.170;2023-08-12T14:53:32;2.10;;;2.00;;